MSC Carolina — 3ECV5 — position and weather

sailwx.info

Track history (hours):
 
Tides and Currents Weather Stations Pressure Air Temp Water Temp Dewpoint Dewpoint Depression Visibility Wind Speed Wind Dir Waves Ship Positions

MSC Carolina

Last reported at 2015-Jan-26 13:33 UTC. Time now 2015-Jan-26 14:30 UTC.
Position N 39°26' W 000°19'.

Length 275 m; draft 13.6 m.

Type: Ship (hazmat cat B). MMSI: 371475000.

Date/timePositionNaut miles runAvg speedWind from/ knotsBaromVisibWave heightAir tempDewpointWater temp
2015-Jan-26 13:33N 39°26' W 000°19'0 0.0
2015-Jan-26 12:30N 39°26' W 000°19'0 0.0
2015-Jan-26 11:27N 39°26' W 000°19'0 0.0
2015-Jan-26 10:33N 39°26' W 000°19'0 0.0
2015-Jan-26 09:33N 39°26' W 000°19'0 0.0
2015-Jan-26 08:33N 39°26' W 000°19'0 0.0
2015-Jan-26 07:33N 39°26' W 000°19'0 0.0
2015-Jan-26 06:33N 39°26' W 000°19'0 0.0
2015-Jan-26 05:33N 39°26' W 000°19'0 0.0
2015-Jan-26 04:33N 39°26' W 000°19'0 0.0
2015-Jan-26 03:33N 39°26' W 000°19'0 0.0
2015-Jan-26 02:33N 39°26' W 000°19'0 0.0
2015-Jan-26 01:33N 39°26' W 000°19'0 0.0
2015-Jan-26 00:30N 39°26' W 000°19'0 0.0
2015-Jan-25 23:24N 39°26' W 000°19'0 0.0
2015-Jan-25 22:32N 39°26' W 000°19'0 0.0
2015-Jan-25 21:32N 39°26' W 000°19'0 0.0
2015-Jan-25 20:32N 39°26' W 000°19'0 0.0
2015-Jan-25 19:32N 39°26' W 000°19'0 0.0
2015-Jan-25 18:32N 39°26' W 000°19'0 0.0
2015-Jan-25 17:32N 39°26' W 000°19'0 0.0
2015-Jan-25 16:23N 39°26' W 000°19'0 0.0
2015-Jan-25 15:32N 39°26' W 000°19'0 0.0
2015-Jan-25 14:05N 39°26' W 000°19'0 0.0
2015-Jan-25 12:26N 39°26' W 000°19'1 0.5
2015-Jan-25 11:31N 39°26' W 000°20'0 0.0
2015-Jan-25 10:10N 39°26' W 000°20'0 0.0
2015-Jan-25 09:31N 39°26' W 000°20'0 0.0
2015-Jan-25 08:19N 39°26' W 000°20'0 0.0
2015-Jan-25 07:31N 39°26' W 000°20'0 0.0
2015-Jan-25 06:33N 39°26' W 000°20'0 0.0
2015-Jan-25 05:30N 39°26' W 000°20'0 0.0
2015-Jan-25 03:15N 39°26' W 000°20'0 0.0
2015-Jan-25 02:33N 39°26' W 000°20'0 0.0
2015-Jan-25 01:33N 39°26' W 000°20'0 0.0
2015-Jan-25 00:27N 39°26' W 000°20'0 0.0
2015-Jan-24 23:24N 39°26' W 000°20'0 0.0
2015-Jan-24 22:33N 39°26' W 000°20'0 0.0
2015-Jan-24 21:33N 39°26' W 000°20'0 0.0
2015-Jan-24 20:33N 39°26' W 000°20'0 0.0
2015-Jan-24 19:30N 39°26' W 000°20'0 0.0
2015-Jan-24 18:24N 39°26' W 000°20'0 0.3
2015-Jan-24 17:33N 39°26' W 000°19'3 3.3
2015-Jan-24 16:33N 39°25' W 000°16'0 0.4
2015-Jan-24 15:33N 39°24' W 000°15'0 0.0
2015-Jan-24 14:15N 39°24' W 000°15'0 0.0
2015-Jan-24 13:24N 39°24' W 000°15'0 0.0
2015-Jan-24 12:30N 39°24' W 000°15'0 0.1
2015-Jan-24 11:27N 39°24' W 000°15'6 7.1
2015-Jan-24 10:33N 39°22' W 000°08'66514.8
2015-Jan-22 13:33N 36°52' E 013°35'1616.2
2015-Jan-22 12:33N 36°44' E 013°53'1616.0
2015-Jan-22 11:33N 36°37' E 014°10'1616.2
2015-Jan-22 10:33N 36°29' E 014°28'  
Track history (hours):
 
Tides and Currents Weather Stations Pressure Air Temp Water Temp Dewpoint Dewpoint Depression Visibility Wind Speed Wind Dir Waves Ship Positions

MSC Carolina

Last reported at 2015-Jan-26 13:33 UTC. Time now 2015-Jan-26 14:30 UTC.
Position N 39°26' W 000°19'.

Length 275 m; draft 13.6 m.

Type: Ship (hazmat cat B). MMSI: 371475000.

Date/timePositionNaut miles runAvg speedWind from/ knotsBaromVisibWave heightAir tempDewpointWater temp
2015-Jan-26 13:33N 39°26' W 000°19'0 0.0
2015-Jan-26 12:30N 39°26' W 000°19'0 0.0
2015-Jan-26 11:27N 39°26' W 000°19'0 0.0
2015-Jan-26 10:33N 39°26' W 000°19'0 0.0
2015-Jan-26 09:33N 39°26' W 000°19'0 0.0
2015-Jan-26 08:33N 39°26' W 000°19'0 0.0
2015-Jan-26 07:33N 39°26' W 000°19'0 0.0
2015-Jan-26 06:33N 39°26' W 000°19'0 0.0
2015-Jan-26 05:33N 39°26' W 000°19'0 0.0
2015-Jan-26 04:33N 39°26' W 000°19'0 0.0
2015-Jan-26 03:33N 39°26' W 000°19'0 0.0
2015-Jan-26 02:33N 39°26' W 000°19'0 0.0
2015-Jan-26 01:33N 39°26' W 000°19'0 0.0
2015-Jan-26 00:30N 39°26' W 000°19'0 0.0
2015-Jan-25 23:24N 39°26' W 000°19'0 0.0
2015-Jan-25 22:32N 39°26' W 000°19'0 0.0
2015-Jan-25 21:32N 39°26' W 000°19'0 0.0
2015-Jan-25 20:32N 39°26' W 000°19'0 0.0
2015-Jan-25 19:32N 39°26' W 000°19'0 0.0
2015-Jan-25 18:32N 39°26' W 000°19'0 0.0
2015-Jan-25 17:32N 39°26' W 000°19'0 0.0
2015-Jan-25 16:23N 39°26' W 000°19'0 0.0
2015-Jan-25 15:32N 39°26' W 000°19'0 0.0
2015-Jan-25 14:05N 39°26' W 000°19'0 0.0
2015-Jan-25 12:26N 39°26' W 000°19'1 0.5
2015-Jan-25 11:31N 39°26' W 000°20'0 0.0
2015-Jan-25 10:10N 39°26' W 000°20'0 0.0
2015-Jan-25 09:31N 39°26' W 000°20'0 0.0
2015-Jan-25 08:19N 39°26' W 000°20'0 0.0
2015-Jan-25 07:31N 39°26' W 000°20'0 0.0
2015-Jan-25 06:33N 39°26' W 000°20'0 0.0
2015-Jan-25 05:30N 39°26' W 000°20'0 0.0
2015-Jan-25 03:15N 39°26' W 000°20'0 0.0
2015-Jan-25 02:33N 39°26' W 000°20'0 0.0
2015-Jan-25 01:33N 39°26' W 000°20'0 0.0
2015-Jan-25 00:27N 39°26' W 000°20'0 0.0
2015-Jan-24 23:24N 39°26' W 000°20'0 0.0
2015-Jan-24 22:33N 39°26' W 000°20'0 0.0
2015-Jan-24 21:33N 39°26' W 000°20'0 0.0
2015-Jan-24 20:33N 39°26' W 000°20'0 0.0
2015-Jan-24 19:30N 39°26' W 000°20'0 0.0
2015-Jan-24 18:24N 39°26' W 000°20'0 0.3
2015-Jan-24 17:33N 39°26' W 000°19'3 3.3
2015-Jan-24 16:33N 39°25' W 000°16'0 0.4
2015-Jan-24 15:33N 39°24' W 000°15'0 0.0
2015-Jan-24 14:15N 39°24' W 000°15'0 0.0
2015-Jan-24 13:24N 39°24' W 000°15'0 0.0
2015-Jan-24 12:30N 39°24' W 000°15'0 0.1
2015-Jan-24 11:27N 39°24' W 000°15'6 7.1
2015-Jan-24 10:33N 39°22' W 000°08'66514.8
2015-Jan-22 13:33N 36°52' E 013°35'1616.2
2015-Jan-22 12:33N 36°44' E 013°53'1616.0
2015-Jan-22 11:33N 36°37' E 014°10'1616.2
2015-Jan-22 10:33N 36°29' E 014°28'  

Dump ship's entire track history